AVA9316 SKBO-SKRG
Flight info
| Callsign | AVA9316 |
|---|---|
| Flight time | 0h 27m |
| Altitude | 22000 |
| Route | TOBKI4R VASIL W36 NIRSO NIRSO3C |
| Aircraft | A320/M-SDE3FGHIRWY/LB1 |
Departure
| Time | 2026-04-25 21:20 |
|---|---|
| Airport | El Dorado International Airport (SKBO) |
Arrival
| Time | 2026-04-25 21:47 |
|---|---|
| Airport | Jose Maria Córdova International Airport (SKRG) |
| Time | Latitude | Longitude | Altitude | Speed | Heading |
|---|---|---|---|---|---|
| 2026-04-25 21:02 | 4.69656 | -74.14540 | 8372 ft | 0 kts | 217° |
| 2026-04-25 21:09 | 4.69684 | -74.14519 | 8371 ft | 4 kts | 229° |
| 2026-04-25 21:09 | 4.69692 | -74.14500 | 8371 ft | 4 kts | 295° |
| 2026-04-25 21:09 | 4.69676 | -74.14480 | 8373 ft | 4 kts | 315° |
| 2026-04-25 21:10 | 4.69671 | -74.14475 | 8370 ft | 4 kts | 307° |
| 2026-04-25 21:10 | 4.69687 | -74.14497 | 8371 ft | 4 kts | 307° |
| 2026-04-25 21:10 | 4.69703 | -74.14518 | 8372 ft | 4 kts | 307° |
| 2026-04-25 21:10 | 4.69717 | -74.14537 | 8372 ft | 1 kts | 307° |
| 2026-04-25 21:11 | 4.69718 | -74.14537 | 8372 ft | 0 kts | 307° |
| 2026-04-25 21:12 | 4.69720 | -74.14540 | 8373 ft | 3 kts | 307° |
| 2026-04-25 21:12 | 4.69745 | -74.14574 | 8373 ft | 12 kts | 307° |
| 2026-04-25 21:13 | 4.69819 | -74.14671 | 8373 ft | 14 kts | 307° |
| 2026-04-25 21:13 | 4.69879 | -74.14752 | 8372 ft | 15 kts | 305° |
| 2026-04-25 21:13 | 4.69942 | -74.14840 | 8373 ft | 15 kts | 296° |
| 2026-04-25 21:13 | 4.69923 | -74.14926 | 8373 ft | 11 kts | 278° |
| 2026-04-25 21:14 | 4.69969 | -74.14989 | 8370 ft | 12 kts | 307° |
| 2026-04-25 21:14 | 4.70022 | -74.15058 | 8373 ft | 13 kts | 307° |
| 2026-04-25 21:14 | 4.70082 | -74.15138 | 8373 ft | 16 kts | 307° |
| 2026-04-25 21:14 | 4.70153 | -74.15231 | 8373 ft | 17 kts | 307° |
| 2026-04-25 21:15 | 4.70227 | -74.15331 | 8372 ft | 18 kts | 307° |
| 2026-04-25 21:15 | 4.70307 | -74.15435 | 8373 ft | 19 kts | 307° |
| 2026-04-25 21:15 | 4.70387 | -74.15543 | 8371 ft | 20 kts | 307° |
| 2026-04-25 21:15 | 4.70477 | -74.15652 | 8373 ft | 21 kts | 309° |
| 2026-04-25 21:16 | 4.70568 | -74.15765 | 8373 ft | 21 kts | 308° |
| 2026-04-25 21:16 | 4.70661 | -74.15882 | 8373 ft | 22 kts | 308° |
| 2026-04-25 21:16 | 4.70754 | -74.16004 | 8374 ft | 22 kts | 307° |
| 2026-04-25 21:16 | 4.70848 | -74.16127 | 8370 ft | 23 kts | 307° |
| 2026-04-25 21:17 | 4.70943 | -74.16253 | 8374 ft | 23 kts | 307° |
| 2026-04-25 21:17 | 4.71040 | -74.16379 | 8373 ft | 23 kts | 307° |
| 2026-04-25 21:17 | 4.71138 | -74.16509 | 8371 ft | 24 kts | 307° |
| 2026-04-25 21:17 | 4.71238 | -74.16642 | 8374 ft | 24 kts | 306° |
| 2026-04-25 21:18 | 4.71294 | -74.16739 | 8371 ft | 15 kts | 265° |
| 2026-04-25 21:18 | 4.71255 | -74.16830 | 8374 ft | 15 kts | 255° |
| 2026-04-25 21:18 | 4.71179 | -74.16897 | 8373 ft | 16 kts | 191° |
| 2026-04-25 21:18 | 4.71070 | -74.16887 | 8373 ft | 11 kts | 183° |
| 2026-04-25 21:19 | 4.71001 | -74.16845 | 8372 ft | 19 kts | 126° |
| 2026-04-25 21:19 | 4.70778 | -74.16550 | 8373 ft | 89 kts | 127° |
| 2026-04-25 21:19 | 4.70277 | -74.15887 | 8373 ft | 147 kts | 128° |
| 2026-04-25 21:19 | 4.69572 | -74.14926 | 8389 ft | 189 kts | 133° |
| 2026-04-25 21:20 | 4.68787 | -74.13845 | 9033 ft | 192 kts | 130° |
| 2026-04-25 21:20 | 4.68142 | -74.13251 | 9567 ft | 191 kts | 154° |
| 2026-04-25 21:20 | 4.66440 | -74.13233 | 10352 ft | 189 kts | 208° |
| 2026-04-25 21:20 | 4.65496 | -74.14115 | 10879 ft | 187 kts | 239° |
| 2026-04-25 21:21 | 4.64833 | -74.15249 | 11312 ft | 193 kts | 240° |
| 2026-04-25 21:21 | 4.64119 | -74.16460 | 11473 ft | 215 kts | 240° |
| 2026-04-25 21:21 | 4.63316 | -74.17818 | 11605 ft | 239 kts | 239° |
| 2026-04-25 21:21 | 4.62443 | -74.19291 | 12126 ft | 248 kts | 239° |
| 2026-04-25 21:22 | 4.61616 | -74.20814 | 12844 ft | 250 kts | 251° |
| 2026-04-25 21:22 | 4.61167 | -74.22579 | 13187 ft | 272 kts | 258° |
| 2026-04-25 21:22 | 4.60781 | -74.24517 | 13453 ft | 295 kts | 259° |
| 2026-04-25 21:22 | 4.60400 | -74.26560 | 13973 ft | 306 kts | 260° |
| 2026-04-25 21:23 | 4.60132 | -74.28693 | 14633 ft | 310 kts | 265° |
| 2026-04-25 21:23 | 4.59985 | -74.30873 | 15329 ft | 313 kts | 267° |
| 2026-04-25 21:23 | 4.59887 | -74.33074 | 15975 ft | 318 kts | 268° |
| 2026-04-25 21:23 | 4.59805 | -74.35297 | 16643 ft | 322 kts | 268° |
| 2026-04-25 21:24 | 4.59718 | -74.37556 | 17246 ft | 326 kts | 268° |
| 2026-04-25 21:24 | 4.59712 | -74.39816 | 17874 ft | 330 kts | 278° |
| 2026-04-25 21:24 | 4.60520 | -74.41966 | 18351 ft | 340 kts | 301° |
| 2026-04-25 21:24 | 4.61881 | -74.43994 | 18484 ft | 359 kts | 306° |
| 2026-04-25 21:25 | 4.63466 | -74.46013 | 18589 ft | 377 kts | 309° |
| 2026-04-25 21:25 | 4.65181 | -74.48057 | 18921 ft | 385 kts | 310° |
| 2026-04-25 21:25 | 4.66926 | -74.50118 | 19328 ft | 390 kts | 310° |
| 2026-04-25 21:25 | 4.68670 | -74.52222 | 19825 ft | 393 kts | 309° |
| 2026-04-25 21:26 | 4.70398 | -74.54365 | 20327 ft | 396 kts | 308° |
| 2026-04-25 21:26 | 4.72096 | -74.56515 | 20821 ft | 399 kts | 308° |
| 2026-04-25 21:26 | 4.73823 | -74.58715 | 21318 ft | 401 kts | 309° |
| 2026-04-25 21:26 | 4.75780 | -74.60728 | 21800 ft | 404 kts | 320° |
| 2026-04-25 21:27 | 4.78021 | -74.62462 | 22065 ft | 406 kts | 323° |
| 2026-04-25 21:27 | 4.80262 | -74.64129 | 22124 ft | 407 kts | 323° |
| 2026-04-25 21:27 | 4.82551 | -74.65818 | 22098 ft | 409 kts | 323° |
| 2026-04-25 21:27 | 4.84843 | -74.67507 | 22097 ft | 409 kts | 323° |
| 2026-04-25 21:28 | 4.87125 | -74.69231 | 22109 ft | 410 kts | 322° |
| 2026-04-25 21:28 | 4.89384 | -74.70989 | 22108 ft | 409 kts | 322° |
| 2026-04-25 21:28 | 4.91589 | -74.72737 | 22109 ft | 409 kts | 320° |
| 2026-04-25 21:28 | 4.93616 | -74.74736 | 22061 ft | 408 kts | 310° |
| 2026-04-25 21:29 | 4.95243 | -74.77076 | 22040 ft | 408 kts | 300° |
| 2026-04-25 21:29 | 4.96517 | -74.79629 | 22030 ft | 408 kts | 296° |
| 2026-04-25 21:29 | 4.97741 | -74.82157 | 22011 ft | 408 kts | 296° |
| 2026-04-25 21:29 | 4.98991 | -74.84725 | 21992 ft | 408 kts | 296° |
| 2026-04-25 21:30 | 5.00246 | -74.87287 | 21979 ft | 408 kts | 296° |
| 2026-04-25 21:30 | 5.01499 | -74.89844 | 21964 ft | 408 kts | 296° |
| 2026-04-25 21:30 | 5.02736 | -74.92374 | 21951 ft | 408 kts | 296° |
| 2026-04-25 21:30 | 5.03579 | -74.94101 | 21947 ft | 408 kts | 296° |
| 2026-04-25 21:31 | 5.05238 | -74.97509 | 21941 ft | 408 kts | 296° |
| 2026-04-25 21:31 | 5.06470 | -75.00044 | 21943 ft | 408 kts | 296° |
| 2026-04-25 21:31 | 5.07715 | -75.02610 | 22111 ft | 409 kts | 296° |
| 2026-04-25 21:31 | 5.08966 | -75.05183 | 22117 ft | 409 kts | 296° |
| 2026-04-25 21:32 | 5.10213 | -75.07750 | 22148 ft | 409 kts | 296° |
| 2026-04-25 21:32 | 5.11463 | -75.10319 | 22149 ft | 409 kts | 296° |
| 2026-04-25 21:32 | 5.12712 | -75.12882 | 22149 ft | 409 kts | 296° |
| 2026-04-25 21:32 | 5.13958 | -75.15443 | 22159 ft | 409 kts | 296° |
| 2026-04-25 21:33 | 5.15251 | -75.17979 | 22166 ft | 408 kts | 301° |
| 2026-04-25 21:33 | 5.16891 | -75.20261 | 22174 ft | 408 kts | 311° |
| 2026-04-25 21:33 | 5.18792 | -75.22399 | 22186 ft | 408 kts | 311° |
| 2026-04-25 21:33 | 5.20679 | -75.24526 | 22195 ft | 407 kts | 311° |
| 2026-04-25 21:34 | 5.22562 | -75.26654 | 22193 ft | 407 kts | 311° |
| 2026-04-25 21:34 | 5.24424 | -75.28763 | 22194 ft | 408 kts | 311° |
| 2026-04-25 21:34 | 5.26304 | -75.30895 | 22198 ft | 407 kts | 311° |
| 2026-04-25 21:34 | 5.28184 | -75.33025 | 22159 ft | 404 kts | 311° |
| 2026-04-25 21:35 | 5.30034 | -75.35120 | 21907 ft | 395 kts | 311° |
| 2026-04-25 21:35 | 5.31902 | -75.37079 | 21623 ft | 389 kts | 319° |
| 2026-04-25 21:35 | 5.34104 | -75.38622 | 21154 ft | 385 kts | 332° |
| 2026-04-25 21:35 | 5.36584 | -75.39640 | 20636 ft | 383 kts | 344° |
| 2026-04-25 21:36 | 5.39207 | -75.40090 | 20108 ft | 382 kts | 356° |
| 2026-04-25 21:36 | 5.41826 | -75.40227 | 19593 ft | 381 kts | 356° |
| 2026-04-25 21:36 | 5.44473 | -75.40368 | 19066 ft | 380 kts | 356° |
| 2026-04-25 21:36 | 5.47114 | -75.40515 | 18492 ft | 378 kts | 356° |
| 2026-04-25 21:37 | 5.49725 | -75.40662 | 17689 ft | 370 kts | 356° |
| 2026-04-25 21:37 | 5.50590 | -75.40711 | 17511 ft | 365 kts | 356° |
| 2026-04-25 21:37 | 5.54716 | -75.40941 | 16707 ft | 354 kts | 356° |
| 2026-04-25 21:37 | 5.57181 | -75.41080 | 16212 ft | 354 kts | 356° |
| 2026-04-25 21:38 | 5.59638 | -75.41218 | 15724 ft | 354 kts | 355° |
| 2026-04-25 21:38 | 5.62104 | -75.41356 | 15236 ft | 354 kts | 355° |
| 2026-04-25 21:38 | 5.64531 | -75.41490 | 14759 ft | 354 kts | 356° |
| 2026-04-25 21:38 | 5.66981 | -75.41626 | 14487 ft | 347 kts | 355° |
| 2026-04-25 21:39 | 5.69359 | -75.41757 | 14370 ft | 335 kts | 355° |
| 2026-04-25 21:39 | 5.71659 | -75.41884 | 14256 ft | 325 kts | 355° |
| 2026-04-25 21:39 | 5.73890 | -75.42005 | 14140 ft | 316 kts | 355° |
| 2026-04-25 21:39 | 5.76031 | -75.42123 | 14041 ft | 306 kts | 355° |
| 2026-04-25 21:40 | 5.78098 | -75.42232 | 13922 ft | 288 kts | 356° |
| 2026-04-25 21:40 | 5.80070 | -75.42272 | 13604 ft | 279 kts | 358° |
| 2026-04-25 21:40 | 5.82003 | -75.42270 | 13144 ft | 276 kts | 359° |
| 2026-04-25 21:40 | 5.83897 | -75.42255 | 12588 ft | 275 kts | 359° |
| 2026-04-25 21:41 | 5.85803 | -75.42237 | 12201 ft | 268 kts | 1° |
| 2026-04-25 21:41 | 5.87015 | -75.42179 | 12122 ft | 257 kts | 1° |
| 2026-04-25 21:41 | 5.88776 | -75.42132 | 11845 ft | 249 kts | 358° |
| 2026-04-25 21:41 | 5.90492 | -75.42138 | 11548 ft | 242 kts | 358° |
| 2026-04-25 21:42 | 5.92694 | -75.42157 | 11168 ft | 235 kts | 357° |
| 2026-04-25 21:42 | 5.93793 | -75.42164 | 10982 ft | 231 kts | 358° |
| 2026-04-25 21:42 | 5.95386 | -75.42174 | 10722 ft | 226 kts | 357° |
| 2026-04-25 21:42 | 5.96940 | -75.42185 | 10436 ft | 220 kts | 359° |
| 2026-04-25 21:43 | 5.98439 | -75.42195 | 10180 ft | 215 kts | 357° |
| 2026-04-25 21:43 | 5.99926 | -75.42204 | 9896 ft | 211 kts | 358° |
| 2026-04-25 21:43 | 6.01386 | -75.42214 | 9632 ft | 207 kts | 357° |
| 2026-04-25 21:43 | 6.02816 | -75.42223 | 9368 ft | 203 kts | 358° |
| 2026-04-25 21:44 | 6.04192 | -75.42232 | 9113 ft | 192 kts | 358° |
| 2026-04-25 21:44 | 6.05485 | -75.42240 | 8876 ft | 180 kts | 358° |
| 2026-04-25 21:44 | 6.07790 | -75.42255 | 8461 ft | 158 kts | 359° |
| 2026-04-25 21:45 | 6.08880 | -75.42262 | 8260 ft | 155 kts | 359° |
| 2026-04-25 21:45 | 6.09596 | -75.42267 | 8128 ft | 154 kts | 359° |
| 2026-04-25 21:45 | 6.11025 | -75.42277 | 7842 ft | 153 kts | 359° |
| 2026-04-25 21:45 | 6.12086 | -75.42284 | 7624 ft | 152 kts | 359° |
| 2026-04-25 21:46 | 6.13143 | -75.42290 | 7385 ft | 152 kts | 360° |
| 2026-04-25 21:46 | 6.14181 | -75.42299 | 7162 ft | 151 kts | 359° |
| 2026-04-25 21:46 | 6.15224 | -75.42308 | 6986 ft | 146 kts | 2° |
| 2026-04-25 21:46 | 6.16128 | -75.42311 | 6982 ft | 108 kts | 0° |
| 2026-04-25 21:47 | 6.16707 | -75.42314 | 7007 ft | 55 kts | 359° |
| 2026-04-25 21:47 | 6.16999 | -75.42353 | 7020 ft | 38 kts | 337° |
| 2026-04-25 21:47 | 6.17128 | -75.42423 | 7019 ft | 16 kts | 329° |
| 2026-04-25 21:47 | 6.17191 | -75.42504 | 7018 ft | 10 kts | 270° |
| 2026-04-25 21:48 | 6.17191 | -75.42574 | 7017 ft | 10 kts | 270° |
| 2026-04-25 21:48 | 6.17146 | -75.42617 | 7018 ft | 10 kts | 175° |
| 2026-04-25 21:48 | 6.17072 | -75.42626 | 7017 ft | 11 kts | 206° |
| 2026-04-25 21:48 | 6.17007 | -75.42675 | 7019 ft | 13 kts | 217° |
| 2026-04-25 21:49 | 6.16944 | -75.42741 | 7017 ft | 14 kts | 235° |
| 2026-04-25 21:49 | 6.16912 | -75.42820 | 7016 ft | 5 kts | 256° |
| 2026-04-25 21:49 | 6.16905 | -75.42849 | 7017 ft | 4 kts | 256° |
| 2026-04-25 21:49 | 6.16900 | -75.42868 | 7018 ft | 2 kts | 256° |
| 2026-04-25 21:50 | 6.16896 | -75.42889 | 7019 ft | 3 kts | 268° |
| 2026-04-25 21:50 | 6.16914 | -75.42902 | 7019 ft | 3 kts | 339° |
| 2026-04-25 21:50 | 6.16939 | -75.42909 | 7016 ft | 0 kts | 347° |
| 2026-04-25 21:50 | 6.16940 | -75.42909 | 7016 ft | 0 kts | 347° |
| 2026-04-25 21:51 | 6.16942 | -75.42909 | 7017 ft | 0 kts | 347° |